Time,TemperatureF,DewpointF,PressureIn,WindDirection,WindDirectionDegrees,WindSpeedMPH,WindSpeedGustMPH,Humidity,HourlyPrecipIn,Conditions,Clouds,dailyrainin,SoftwareType,DateUTC
2013-03-09 00:02:00,36.0,24.0,30.45,WNW,300,0.0,0.0,62,0.00,,,0.08,,2013-03-09 05:02:00,
2013-03-09 00:12:00,36.0,24.0,30.45,WNW,300,0.0,0.0,62,0.00,,,0.08,,2013-03-09 05:12:00,
2013-03-09 00:22:00,35.0,24.0,30.45,NE,53,0.0,0.0,63,0.00,,,0.08,,2013-03-09 05:22:00,
2013-03-09 00:32:00,36.0,24.0,30.45,NE,39,0.0,0.0,62,0.00,,,0.08,,2013-03-09 05:32:00,
2013-03-09 00:43:00,36.0,24.0,30.45,NE,39,0.0,0.0,62,0.00,,,0.08,,2013-03-09 05:43:00,
2013-03-09 00:53:00,36.0,24.0,30.45,NNE,33,0.0,0.0,62,0.00,,,0.08,,2013-03-09 05:53:00,
2013-03-09 01:02:00,35.0,25.0,30.45,NNE,14,0.0,0.0,66,0.00,,,0.08,,2013-03-09 06:02:00,
2013-03-09 01:11:00,34.0,23.0,30.45,NNE,33,0.0,0.0,64,0.00,,,0.08,,2013-03-09 06:11:00,
2013-03-09 01:22:00,34.0,23.0,30.45,NNE,33,0.0,0.0,64,0.00,,,0.08,,2013-03-09 06:22:00,
2013-03-09 01:32:00,35.0,23.0,30.45,NE,50,0.0,0.0,62,0.00,,,0.08,,2013-03-09 06:32:00,
2013-03-09 01:42:00,35.0,23.0,30.45,NE,50,0.0,0.0,62,0.00,,,0.08,,2013-03-09 06:42:00,
2013-03-09 01:52:00,35.0,24.0,30.45,NNE,27,0.0,0.0,63,0.00,,,0.08,,2013-03-09 06:52:00,
2013-03-09 02:01:00,35.0,24.0,30.45,North,350,0.0,0.0,65,0.00,,,0.08,,2013-03-09 07:01:00,
2013-03-09 02:11:00,35.0,24.0,30.45,North,350,0.0,0.0,65,0.00,,,0.08,,2013-03-09 07:11:00,
2013-03-09 02:21:00,34.0,23.0,30.45,ENE,74,0.0,0.0,63,0.00,,,0.08,,2013-03-09 07:21:00,
2013-03-09 02:32:00,34.0,23.0,30.45,ENE,72,0.0,0.0,64,0.00,,,0.08,,2013-03-09 07:32:00,
2013-03-09 02:42:00,34.0,23.0,30.45,ENE,72,0.0,0.0,64,0.00,,,0.08,,2013-03-09 07:42:00,
2013-03-09 02:52:00,33.0,24.0,30.45,ENE,61,0.0,0.0,68,0.00,,,0.08,,2013-03-09 07:52:00,
2013-03-09 03:01:00,32.0,23.0,30.45,ENE,61,0.0,0.0,69,0.00,,,0.08,,2013-03-09 08:01:00,
2013-03-09 03:11:00,32.0,23.0,30.45,ENE,61,0.0,0.0,69,0.00,,,0.08,,2013-03-09 08:11:00,
2013-03-09 03:22:00,32.0,22.0,30.45,ENE,64,0.0,0.0,67,0.00,,,0.08,,2013-03-09 08:22:00,
2013-03-09 03:32:00,32.0,22.0,30.45,NE,47,0.0,0.0,66,0.00,,,0.08,,2013-03-09 08:32:00,
2013-03-09 03:42:00,32.0,22.0,30.45,NE,47,0.0,0.0,66,0.00,,,0.08,,2013-03-09 08:42:00,
2013-03-09 03:52:00,32.0,22.0,30.45,NNE,27,0.0,0.0,66,0.00,,,0.08,,2013-03-09 08:52:00,
2013-03-09 04:02:00,33.0,22.0,30.45,NE,42,0.0,0.0,63,0.00,,,0.08,,2013-03-09 09:02:00,
2013-03-09 04:12:00,33.0,22.0,30.45,NE,42,0.0,0.0,63,0.00,,,0.08,,2013-03-09 09:12:00,
2013-03-09 04:21:00,32.0,22.0,30.46,NE,36,0.0,0.0,66,0.00,,,0.08,,2013-03-09 09:21:00,
2013-03-09 04:32:00,31.0,22.0,30.46,NE,44,0.0,0.0,68,0.00,,,0.08,,2013-03-09 09:32:00,
2013-03-09 04:42:00,31.0,22.0,30.46,NE,44,0.0,0.0,68,0.00,,,0.08,,2013-03-09 09:42:00,
2013-03-09 04:52:00,31.0,22.0,30.47,ENE,73,0.0,0.0,69,0.00,,,0.08,,2013-03-09 09:52:00,
2013-03-09 05:01:00,30.0,21.0,30.48,West,264,0.0,0.0,70,0.00,,,0.08,,2013-03-09 10:01:00,
2013-03-09 05:11:00,30.0,21.0,30.48,West,264,0.0,0.0,70,0.00,,,0.08,,2013-03-09 10:11:00,
2013-03-09 05:22:00,29.0,21.0,30.48,West,264,0.0,0.0,73,0.00,,,0.08,,2013-03-09 10:22:00,
2013-03-09 05:32:00,29.0,21.0,30.48,West,264,0.0,0.0,73,0.00,,,0.08,,2013-03-09 10:32:00,
2013-03-09 05:42:00,29.0,21.0,30.48,West,264,0.0,0.0,73,0.00,,,0.08,,2013-03-09 10:42:00,
2013-03-09 05:52:00,28.0,21.0,30.49,West,264,0.0,0.0,75,0.00,,,0.08,,2013-03-09 10:52:00,
2013-03-09 06:01:00,28.0,21.0,30.49,West,266,0.0,0.0,75,0.00,,,0.08,,2013-03-09 11:01:00,
2013-03-09 06:11:00,28.0,21.0,30.49,West,266,0.0,0.0,75,0.00,,,0.08,,2013-03-09 11:11:00,
2013-03-09 06:22:00,27.0,20.0,30.50,West,266,0.0,0.0,76,0.00,,,0.08,,2013-03-09 11:22:00,
2013-03-09 06:32:00,26.0,20.0,30.50,West,265,0.0,0.0,77,0.00,,,0.08,,2013-03-09 11:32:00,
2013-03-09 06:42:00,26.0,20.0,30.50,West,265,0.0,0.0,77,0.00,,,0.08,,2013-03-09 11:42:00,
2013-03-09 06:52:00,26.0,20.0,30.51,West,266,0.0,0.0,78,0.00,,,0.08,,2013-03-09 11:52:00,
2013-03-09 07:02:00,27.0,20.0,30.51,East,86,0.0,0.0,76,0.00,,,0.08,,2013-03-09 12:02:00,
2013-03-09 07:11:00,27.0,20.0,30.51,East,86,0.0,0.0,76,0.00,,,0.08,,2013-03-09 12:11:00,
2013-03-09 07:22:00,28.0,21.0,30.52,East,86,0.0,0.0,75,0.00,,,0.08,,2013-03-09 12:22:00,
2013-03-09 07:32:00,29.0,21.0,30.53,ENE,73,0.0,0.0,73,0.00,,,0.08,,2013-03-09 12:32:00,
2013-03-09 07:42:00,29.0,21.0,30.53,ENE,73,0.0,0.0,73,0.00,,,0.08,,2013-03-09 12:42:00,
2013-03-09 07:52:00,30.0,21.0,30.53,NE,56,0.0,0.0,70,0.00,,,0.08,,2013-03-09 12:52:00,
2013-03-09 08:02:00,32.0,23.0,30.53,SE,129,0.0,0.0,68,0.00,,,0.08,,2013-03-09 13:02:00,
2013-03-09 08:11:00,32.0,23.0,30.53,SE,129,0.0,0.0,68,0.00,,,0.08,,2013-03-09 13:11:00,
2013-03-09 08:22:00,34.0,23.0,30.54,NE,41,0.0,0.0,63,0.00,,,0.08,,2013-03-09 13:22:00,
2013-03-09 08:32:00,35.0,23.0,30.54,ENE,78,0.0,0.0,61,0.00,,,0.08,,2013-03-09 13:32:00,
2013-03-09 08:42:00,35.0,23.0,30.54,ENE,78,0.0,0.0,61,0.00,,,0.08,,2013-03-09 13:42:00,
2013-03-09 08:52:00,36.0,23.0,30.53,ENE,64,0.0,0.0,59,0.00,,,0.08,,2013-03-09 13:52:00,
2013-03-09 09:01:00,37.0,24.0,30.53,NE,39,0.0,0.0,58,0.00,,,0.08,,2013-03-09 14:01:00,
2013-03-09 09:11:00,37.0,24.0,30.53,NE,39,0.0,0.0,58,0.00,,,0.08,,2013-03-09 14:11:00,
2013-03-09 09:22:00,38.0,24.0,30.54,NE,35,0.0,0.0,56,0.00,,,0.08,,2013-03-09 14:22:00,
2013-03-09 09:32:00,39.0,24.0,30.54,ENE,73,0.0,0.0,54,0.00,,,0.08,,2013-03-09 14:32:00,
2013-03-09 09:42:00,39.0,24.0,30.54,ENE,73,0.0,0.0,54,0.00,,,0.08,,2013-03-09 14:42:00,
2013-03-09 09:52:00,39.0,24.0,30.54,SW,215,0.0,0.0,54,0.00,,,0.08,,2013-03-09 14:52:00,
2013-03-09 10:02:00,40.0,23.0,30.54,North,5,0.0,0.0,51,0.00,,,0.08,,2013-03-09 15:02:00,
2013-03-09 10:12:00,40.0,23.0,30.54,North,5,0.0,0.0,51,0.00,,,0.08,,2013-03-09 15:12:00,
2013-03-09 10:22:00,41.0,24.0,30.54,NE,50,0.0,0.0,50,0.00,,,0.08,,2013-03-09 15:22:00,
2013-03-09 10:32:00,41.0,23.0,30.54,NE,56,0.0,0.0,48,0.00,,,0.08,,2013-03-09 15:32:00,
2013-03-09 10:42:00,41.0,23.0,30.54,NE,56,0.0,0.0,48,0.00,,,0.08,,2013-03-09 15:42:00,
2013-03-09 10:52:00,42.0,24.0,30.53,ENE,64,0.0,0.0,48,0.00,,,0.08,,2013-03-09 15:52:00,
2013-03-09 11:01:00,42.0,23.0,30.53,ENE,77,0.0,0.0,47,0.00,,,0.08,,2013-03-09 16:01:00,
2013-03-09 11:11:00,42.0,23.0,30.53,ENE,77,0.0,0.0,47,0.00,,,0.08,,2013-03-09 16:11:00,
2013-03-09 11:21:00,43.0,28.0,30.54,ENE,70,0.0,0.0,56,0.01,,,0.09,,2013-03-09 16:21:00,
2013-03-09 11:32:00,42.0,28.0,30.54,ESE,111,0.0,0.0,57,0.01,,,0.09,,2013-03-09 16:32:00,
2013-03-09 11:42:00,42.0,28.0,30.54,ESE,111,0.0,0.0,57,0.01,,,0.09,,2013-03-09 16:42:00,
2013-03-09 11:52:00,43.0,30.0,30.54,East,90,1.0,6.0,59,0.03,,,0.11,,2013-03-09 16:52:00,
2013-03-09 12:01:00,43.0,29.0,30.54,East,84,0.0,3.0,58,0.06,,,0.14,,2013-03-09 17:01:00,
2013-03-09 12:11:00,43.0,29.0,30.54,East,84,0.0,3.0,58,0.06,,,0.14,,2013-03-09 17:11:00,
2013-03-09 12:22:00,44.0,30.0,30.54,ENE,60,1.0,3.0,58,0.06,,,0.15,,2013-03-09 17:22:00,
2013-03-09 12:32:00,44.0,30.0,30.54,ESE,103,1.0,3.0,58,0.06,,,0.15,,2013-03-09 17:32:00,
2013-03-09 12:42:00,44.0,30.0,30.54,ESE,103,1.0,3.0,58,0.06,,,0.15,,2013-03-09 17:42:00,
2013-03-09 12:52:00,44.0,30.0,30.53,ESE,120,2.0,3.0,57,0.04,,,0.15,,2013-03-09 17:52:00,
2013-03-09 13:02:00,45.0,30.0,30.53,East,81,1.0,3.0,56,0.01,,,0.15,,2013-03-09 18:02:00,
2013-03-09 13:11:00,45.0,30.0,30.53,East,81,1.0,3.0,56,0.01,,,0.15,,2013-03-09 18:11:00,
2013-03-09 13:21:00,45.0,30.0,30.53,SSE,166,2.0,5.0,55,0.00,,,0.15,,2013-03-09 18:21:00,
2013-03-09 13:32:00,46.0,31.0,30.53,ENE,63,1.0,6.0,56,0.02,,,0.17,,2013-03-09 18:32:00,
2013-03-09 13:42:00,46.0,31.0,30.53,ENE,63,1.0,6.0,56,0.02,,,0.17,,2013-03-09 18:42:00,
2013-03-09 13:52:00,46.0,31.0,30.52,ENE,74,1.0,5.0,56,0.09,,,0.24,,2013-03-09 18:52:00,
2013-03-09 14:01:00,46.0,32.0,30.53,ESE,117,1.0,5.0,57,0.11,,,0.26,,2013-03-09 19:01:00,
2013-03-09 14:12:00,46.0,32.0,30.53,ESE,117,1.0,5.0,57,0.11,,,0.26,,2013-03-09 19:12:00,
2013-03-09 14:22:00,46.0,32.0,30.53,West,270,1.0,3.0,58,0.16,,,0.31,,2013-03-09 19:22:00,
2013-03-09 14:32:00,45.0,31.0,30.52,NE,53,2.0,6.0,57,0.15,,,0.32,,2013-03-09 19:32:00,
2013-03-09 14:42:00,45.0,31.0,30.52,NE,53,2.0,6.0,57,0.15,,,0.32,,2013-03-09 19:42:00,
2013-03-09 14:52:00,45.0,32.0,30.52,ESE,105,1.0,5.0,61,0.10,,,0.34,,2013-03-09 19:52:00,
2013-03-09 15:01:00,44.0,31.0,30.53,ENE,72,2.0,6.0,61,0.09,,,0.35,,2013-03-09 20:01:00,
2013-03-09 15:11:00,44.0,31.0,30.53,ENE,72,2.0,6.0,61,0.09,,,0.35,,2013-03-09 20:11:00,
2013-03-09 15:22:00,43.0,32.0,30.53,East,79,1.0,3.0,64,0.06,,,0.37,,2013-03-09 20:22:00,
2013-03-09 15:32:00,42.0,31.0,30.53,NE,53,2.0,5.0,66,0.05,,,0.37,,2013-03-09 20:32:00,
2013-03-09 15:42:00,42.0,31.0,30.53,NE,53,2.0,5.0,66,0.05,,,0.37,,2013-03-09 20:42:00,
2013-03-09 15:52:00,41.0,31.0,30.54,East,91,1.0,5.0,68,0.04,,,0.38,,2013-03-09 20:52:00,
2013-03-09 16:02:00,40.0,31.0,30.54,ENE,64,1.0,6.0,69,0.03,,,0.38,,2013-03-09 21:02:00,
2013-03-09 16:12:00,40.0,31.0,30.54,ENE,64,1.0,6.0,69,0.03,,,0.38,,2013-03-09 21:12:00,
2013-03-09 16:22:00,40.0,31.0,30.54,East,101,1.0,3.0,70,0.01,,,0.37,,2013-03-09 21:22:00,
2013-03-09 16:32:00,39.0,30.0,30.55,NE,43,1.0,2.0,70,0.01,,,0.37,,2013-03-09 21:32:00,
2013-03-09 16:42:00,39.0,30.0,30.55,NE,43,1.0,2.0,70,0.01,,,0.37,,2013-03-09 21:42:00,
2013-03-09 16:52:00,39.0,30.0,30.55,ESE,106,0.0,2.0,71,0.00,,,0.36,,2013-03-09 21:52:00,
2013-03-09 17:01:00,39.0,30.0,30.56,SE,141,0.0,2.0,71,0.00,,,0.36,,2013-03-09 22:01:00,
2013-03-09 17:11:00,39.0,30.0,30.56,SE,141,0.0,2.0,71,0.00,,,0.36,,2013-03-09 22:11:00,
2013-03-09 17:22:00,38.0,30.0,30.56,ESE,120,0.0,2.0,72,0.00,,,0.35,,2013-03-09 22:22:00,
2013-03-09 17:32:00,38.0,30.0,30.57,ENE,78,0.0,3.0,74,0.00,,,0.35,,2013-03-09 22:32:00,
2013-03-09 17:42:00,38.0,30.0,30.57,ENE,78,0.0,3.0,74,0.00,,,0.35,,2013-03-09 22:42:00,
2013-03-09 17:52:00,37.0,30.0,30.58,East,79,0.0,1.0,76,0.00,,,0.34,,2013-03-09 22:52:00,
2013-03-09 18:01:00,36.0,29.0,30.59,East,79,0.0,0.0,77,0.00,,,0.34,,2013-03-09 23:01:00,
2013-03-09 18:11:00,36.0,29.0,30.59,East,79,0.0,0.0,77,0.00,,,0.34,,2013-03-09 23:11:00,
2013-03-09 18:22:00,35.0,29.0,30.59,East,79,0.0,0.0,80,0.00,,,0.34,,2013-03-09 23:22:00,
2013-03-09 18:32:00,34.0,29.0,30.60,East,79,0.0,0.0,81,0.00,,,0.34,,2013-03-09 23:32:00,
2013-03-09 18:42:00,34.0,29.0,30.60,East,79,0.0,0.0,81,0.00,,,0.34,,2013-03-09 23:42:00,
2013-03-09 18:52:00,33.0,28.0,30.60,East,79,0.0,0.0,83,0.00,,,0.33,,2013-03-09 23:52:00,
2013-03-09 19:02:00,32.0,28.0,30.60,East,79,0.0,0.0,85,0.00,,,0.33,,2013-03-10 00:02:00,
2013-03-09 19:11:00,32.0,28.0,30.60,East,79,0.0,0.0,85,0.00,,,0.33,,2013-03-10 00:11:00,
2013-03-09 19:22:00,31.0,28.0,30.60,East,79,0.0,0.0,88,0.00,,,0.33,,2013-03-10 00:22:00,
2013-03-09 19:32:00,30.0,27.0,30.61,East,79,0.0,0.0,89,0.00,,,0.32,,2013-03-10 00:32:00,
2013-03-09 19:42:00,30.0,27.0,30.61,East,79,0.0,0.0,89,0.00,,,0.32,,2013-03-10 00:42:00,
2013-03-09 19:52:00,29.0,27.0,30.61,East,79,0.0,0.0,91,0.00,,,0.32,,2013-03-10 00:52:00,
2013-03-09 20:01:00,29.0,27.0,30.61,East,79,0.0,0.0,91,0.00,,,0.32,,2013-03-10 01:01:00,
2013-03-09 20:11:00,29.0,27.0,30.61,East,79,0.0,0.0,91,0.00,,,0.32,,2013-03-10 01:11:00,
2013-03-09 20:22:00,28.0,26.0,30.61,East,79,0.0,0.0,92,0.00,,,0.31,,2013-03-10 01:22:00,
2013-03-09 20:32:00,28.0,26.0,30.61,East,79,0.0,0.0,93,0.00,,,0.31,,2013-03-10 01:32:00,
2013-03-09 20:42:00,28.0,26.0,30.61,East,79,0.0,0.0,93,0.00,,,0.31,,2013-03-10 01:42:00,
2013-03-09 20:52:00,28.0,27.0,30.62,East,79,0.0,0.0,94,0.00,,,0.31,,2013-03-10 01:52:00,
2013-03-09 21:01:00,28.0,27.0,30.62,East,79,0.0,0.0,94,0.00,,,0.31,,2013-03-10 02:01:00,
2013-03-09 21:11:00,28.0,27.0,30.62,East,79,0.0,0.0,94,0.00,,,0.31,,2013-03-10 02:11:00,
2013-03-09 21:22:00,27.0,26.0,30.63,East,79,0.0,0.0,95,0.00,,,0.31,,2013-03-10 02:22:00,
2013-03-09 21:32:00,27.0,26.0,30.63,East,79,0.0,0.0,95,0.00,,,0.30,,2013-03-10 02:32:00,
2013-03-09 21:42:00,27.0,26.0,30.63,East,79,0.0,0.0,95,0.00,,,0.30,,2013-03-10 02:42:00,
2013-03-09 21:52:00,27.0,26.0,30.65,East,79,0.0,0.0,95,0.00,,,0.30,,2013-03-10 02:52:00,
2013-03-09 22:02:00,27.0,26.0,30.65,East,79,0.0,0.0,95,0.00,,,0.30,,2013-03-10 03:02:00,
2013-03-09 22:12:00,27.0,26.0,30.65,East,79,0.0,0.0,95,0.00,,,0.30,,2013-03-10 03:12:00,
2013-03-09 22:22:00,26.0,25.0,30.64,East,79,0.0,0.0,95,0.00,,,0.30,,2013-03-10 03:22:00,
2013-03-09 22:32:00,26.0,25.0,30.63,East,79,0.0,0.0,95,0.00,,,0.30,,2013-03-10 03:32:00,
2013-03-09 22:42:00,26.0,25.0,30.63,East,79,0.0,0.0,95,0.00,,,0.30,,2013-03-10 03:42:00,
2013-03-09 22:52:00,26.0,25.0,30.63,East,79,0.0,0.0,96,0.00,,,0.30,,2013-03-10 03:52:00,
2013-03-09 23:01:00,25.0,24.0,30.63,East,79,0.0,0.0,95,0.00,,,0.30,,2013-03-10 04:01:00,
2013-03-09 23:11:00,25.0,24.0,30.63,East,79,0.0,0.0,95,0.00,,,0.30,,2013-03-10 04:11:00,
2013-03-09 23:21:00,25.0,24.0,30.64,East,79,0.0,0.0,96,0.00,,,0.30,,2013-03-10 04:21:00,
2013-03-09 23:32:00,25.0,24.0,30.64,East,79,0.0,0.0,96,0.00,,,0.30,,2013-03-10 04:32:00,
2013-03-09 23:42:00,25.0,24.0,30.64,East,79,0.0,0.0,96,0.00,,,0.30,,2013-03-10 04:42:00,
2013-03-09 23:52:00,24.0,23.0,30.64,East,79,0.0,0.0,96,0.00,,,0.30,,2013-03-10 04:52:00,